Time;durP1;ratioP1;P1;durP2;ratioP2;P2;SDS_P1;SDS_P2;PMS_P1;PMS_P2;Temp;Humidity;BMP_temperature;BMP_pressure;BME280_temperature;BME280_humidity;BME280_pressure;Samples;Min_cycle;Max_cycle;Signal;HPM_P1;HPM_P2
2023/06/01 00:02:14;;;;;;;1.40;1.40;;;;;;;16.18;100.00;97091.53;5087231;28;20052;-63
2023/06/01 00:04:41;;;;;;;1.35;1.35;;;;;;;16.09;100.00;97091.97;5087103;28;20051;-63
2023/06/01 00:07:10;;;;;;;1.60;1.60;;;;;;;15.74;100.00;97044.63;5085710;28;20143;-62
2023/06/01 00:09:37;;;;;;;1.40;1.40;;;;;;;16.08;100.00;97087.59;5087189;28;20066;-63
2023/06/01 00:12:05;;;;;;;1.30;1.30;;;;;;;16.03;100.00;97096.38;5087053;28;20472;-62
2023/06/01 00:14:32;;;;;;;1.40;1.40;;;;;;;15.93;100.00;97102.00;5087120;28;21212;-63
2023/06/01 00:16:59;;;;;;;1.25;1.25;;;;;;;15.95;100.00;97083.63;5087060;28;20306;-63
2023/06/01 00:19:26;;;;;;;1.30;1.30;;;;;;;15.94;100.00;97087.63;5087242;28;20446;-62
2023/06/01 00:21:54;;;;;;;1.30;1.30;;;;;;;15.81;100.00;97083.69;5087168;28;20524;-63
2023/06/01 00:24:21;;;;;;;1.42;1.42;;;;;;;15.83;100.00;97088.88;5086895;28;20480;-63
2023/06/01 00:26:48;;;;;;;1.30;1.30;;;;;;;15.48;100.00;97042.28;5085320;28;20537;-62
2023/06/01 00:29:15;;;;;;;1.40;1.40;;;;;;;15.75;100.00;97085.31;5086776;28;20051;-63
2023/06/01 00:31:42;;;;;;;1.50;1.50;;;;;;;15.68;100.00;97085.31;5086771;28;20056;-62
2023/06/01 00:34:09;;;;;;;1.20;1.20;;;;;;;15.65;100.00;97086.09;5086178;28;20147;-64
2023/06/01 00:36:36;;;;;;;1.27;1.27;;;;;;;15.66;100.00;97090.50;5086543;28;20056;-63
2023/06/01 00:39:03;;;;;;;1.45;1.45;;;;;;;15.70;100.00;97088.50;5093323;28;20504;-63
2023/06/01 00:41:32;;;;;;;1.30;1.30;;;;;;;15.67;100.00;97094.09;5105447;28;20047;-63
2023/06/01 00:43:59;;;;;;;1.25;1.25;;;;;;;15.56;100.00;97096.91;5106948;28;20098;-62
2023/06/01 00:46:26;;;;;;;1.40;1.40;;;;;;;15.39;100.00;97102.50;5106174;28;20054;-62
2023/06/01 00:48:54;;;;;;;1.23;1.23;;;;;;;15.44;100.00;97099.31;5106425;28;20048;-62
2023/06/01 00:51:21;;;;;;;1.40;1.40;;;;;;;15.38;100.00;97101.69;5106800;28;20478;-63
2023/06/01 00:53:49;;;;;;;1.23;1.23;;;;;;;15.42;100.00;97096.94;5104814;28;20059;-62
2023/06/01 00:56:17;;;;;;;1.30;1.30;;;;;;;15.45;100.00;97098.91;5106517;28;20050;-62
2023/06/01 00:58:44;;;;;;;1.17;1.17;;;;;;;14.70;100.00;96979.38;5104932;28;20062;-62
2023/06/01 01:01:22;;;;;;;1.30;1.30;;;;;;;15.42;100.00;97094.13;5106513;28;20083;-62
2023/06/01 01:03:57;;;;;;;1.25;1.25;;;;;;;15.41;100.00;97092.56;5105234;28;20062;-62
2023/06/01 01:06:48;;;;;;;1.27;1.27;;;;;;;15.30;100.00;97108.44;5104781;28;20078;-63
2023/06/01 01:09:38;;;;;;;1.25;1.25;;;;;;;15.08;100.00;97101.28;5106484;28;20048;-62
2023/06/01 01:12:23;;;;;;;1.25;1.25;;;;;;;15.01;100.00;97106.88;5105045;28;20051;-62
2023/06/01 01:14:59;;;;;;;1.13;1.13;;;;;;;15.05;100.00;97097.31;5104876;28;20051;-63
2023/06/01 01:17:32;;;;;;;1.23;1.23;;;;;;;15.07;100.00;97102.47;5106023;28;20047;-63
2023/06/01 01:20:30;;;;;;;1.25;1.25;;;;;;;14.99;100.00;97109.25;5106325;28;20048;-62
2023/06/01 01:23:16;;;;;;;1.17;1.17;;;;;;;14.69;100.00;97051.06;5105143;28;20055;-63
2023/06/01 01:26:12;;;;;;;1.20;1.20;;;;;;;15.08;100.00;97101.28;5104563;28;20077;-62
2023/06/01 01:28:49;;;;;;;1.30;1.30;;;;;;;14.98;100.00;97097.28;5104529;28;20109;-62
2023/06/01 01:31:18;;;;;;;1.23;1.23;;;;;;;14.67;100.00;97063.78;5106243;28;20241;-63
2023/06/01 01:33:47;;;;;;;1.27;1.27;;;;;;;14.80;100.00;97084.53;5105579;28;20521;-63
2023/06/01 01:36:15;;;;;;;1.30;1.30;;;;;;;14.47;100.00;97057.00;5104034;28;20055;-63
2023/06/01 01:38:42;;;;;;;1.30;1.30;;;;;;;14.17;100.00;96984.06;5099924;28;20047;-63
2023/06/01 01:41:08;;;;;;;1.10;1.10;;;;;;;14.92;100.00;97095.31;5084983;28;20305;-64
2023/06/01 01:43:37;;;;;;;1.20;1.20;;;;;;;14.73;100.00;97090.13;5065152;28;20404;-63
2023/06/01 01:46:12;;;;;;;1.10;1.10;;;;;;;14.71;100.00;97109.22;5064303;28;20060;-63
2023/06/01 01:49:10;;;;;;;1.30;1.30;;;;;;;14.58;100.00;97099.63;5064717;28;20049;-63
2023/06/01 01:51:50;;;;;;;1.20;1.20;;;;;;;14.54;100.00;97098.84;5064276;28;20087;-64
2023/06/01 01:54:18;;;;;;;1.13;1.13;;;;;;;14.55;100.00;97092.88;5064755;28;20056;-63
2023/06/01 01:56:46;;;;;;;1.10;1.10;;;;;;;14.43;100.00;97114.72;5064441;28;20051;-63
2023/06/01 01:59:15;;;;;;;1.20;1.20;;;;;;;14.46;100.00;97102.78;5063568;28;20135;-64
2023/06/01 02:01:44;;;;;;;1.20;1.20;;;;;;;13.80;100.00;97011.41;5065002;28;20060;-64
2023/06/01 02:04:11;;;;;;;1.10;1.10;;;;;;;14.42;100.00;97104.75;5064807;28;20498;-64
2023/06/01 02:06:38;;;;;;;1.20;1.20;;;;;;;14.32;100.00;97100.75;5064164;28;20052;-64
2023/06/01 02:09:08;;;;;;;1.08;1.08;;;;;;;14.28;100.00;97113.06;5064768;28;20129;-63
2023/06/01 02:11:35;;;;;;;1.00;1.00;;;;;;;14.26;100.00;97104.31;5064348;28;20469;-63
2023/06/01 02:14:02;;;;;;;1.20;1.20;;;;;;;13.84;100.00;97026.13;5064124;28;20135;-62
2023/06/01 02:16:29;;;;;;;1.10;1.10;;;;;;;14.30;100.00;97105.13;5064114;28;20523;-63
2023/06/01 02:18:59;;;;;;;1.30;1.30;;;;;;;14.38;100.00;97103.97;5079892;28;20149;-64
2023/06/01 02:21:26;;;;;;;1.20;1.20;;;;;;;14.35;100.00;97113.88;5062753;28;20590;-62
2023/06/01 02:23:52;;;;;;;1.10;1.10;;;;;;;14.40;100.00;97109.94;5062919;28;20088;-62
2023/06/01 02:26:19;;;;;;;1.10;1.10;;;;;;;14.32;100.00;97086.03;5063078;28;20056;-64
2023/06/01 02:28:46;;;;;;;1.20;1.20;;;;;;;14.44;100.00;97105.16;5063624;28;20040;-63
2023/06/01 02:31:14;;;;;;;1.20;1.20;;;;;;;14.48;100.00;97108.78;5078173;28;20052;-63
2023/06/01 02:33:41;;;;;;;1.15;1.15;;;;;;;14.51;100.00;97105.97;5061583;28;20060;-63
2023/06/01 02:36:07;;;;;;;1.20;1.20;;;;;;;14.39;100.00;97130.63;5062382;28;20637;-63
2023/06/01 02:38:34;;;;;;;1.10;1.10;;;;;;;14.41;100.00;97105.97;5086704;28;20039;-62
2023/06/01 02:41:01;;;;;;;1.10;1.10;;;;;;;13.26;100.00;96928.88;5104536;28;20053;-63
2023/06/01 02:43:28;;;;;;;1.30;1.30;;;;;;;14.43;100.00;97114.72;5104777;28;20123;-64
2023/06/01 02:45:55;;;;;;;1.10;1.10;;;;;;;14.29;100.00;97095.19;5103887;28;20073;-63
2023/06/01 02:48:22;;;;;;;1.25;1.25;;;;;;;14.42;100.00;97118.69;5105299;28;20633;-62
2023/06/01 02:50:48;;;;;;;1.20;1.20;;;;;;;14.43;100.00;97129.44;5104598;28;20066;-63
2023/06/01 02:53:15;;;;;;;1.20;1.20;;;;;;;14.38;100.00;97109.53;5105192;28;20508;-63
2023/06/01 02:55:42;;;;;;;1.30;1.30;;;;;;;13.47;100.00;96965.94;5104258;28;20442;-62
2023/06/01 02:58:14;;;;;;;1.00;1.00;;;;;;;14.46;100.00;97125.09;5104165;28;20502;-63
2023/06/01 03:00:42;;;;;;;1.15;1.15;;;;;;;14.46;100.00;97125.09;5104614;28;20052;-62
2023/06/01 03:03:09;;;;;;;1.20;1.20;;;;;;;14.48;100.00;97123.50;5102967;28;20055;-63
2023/06/01 03:05:36;;;;;;;1.20;1.20;;;;;;;13.92;100.00;97022.19;5102804;28;20059;-61
2023/06/01 03:08:03;;;;;;;1.10;1.10;;;;;;;14.53;100.00;97125.91;5102845;28;20422;-62
2023/06/01 03:10:30;;;;;;;1.20;1.20;;;;;;;14.56;100.00;97113.16;5104336;28;20044;-62
2023/06/01 03:12:56;;;;;;;1.35;1.35;;;;;;;14.61;100.00;97121.13;5102686;28;20426;-62
2023/06/01 03:15:23;;;;;;;1.30;1.30;;;;;;;14.43;100.00;97118.28;5103913;28;20047;-62
2023/06/01 03:17:50;;;;;;;1.10;1.10;;;;;;;14.52;100.00;97123.50;5102744;28;20048;-63
2023/06/01 03:20:17;;;;;;;1.30;1.30;;;;;;;14.13;100.00;97056.47;5103776;28;20109;-64
2023/06/01 03:22:44;;;;;;;1.33;1.33;;;;;;;14.63;100.00;97124.34;5103813;28;20043;-62
2023/06/01 03:25:12;;;;;;;1.20;1.20;;;;;;;14.14;100.00;97051.69;5103994;28;20133;-62
2023/06/01 03:27:40;;;;;;;1.27;1.27;;;;;;;14.62;100.00;97133.91;5102247;28;20581;-62
2023/06/01 03:30:11;;;;;;;1.10;1.10;;;;;;;14.50;100.00;97131.47;5103925;28;20068;-61
2023/06/01 03:32:39;;;;;;;1.20;1.20;;;;;;;14.62;100.00;97122.75;5102794;28;20043;-62
2023/06/01 03:35:07;;;;;;;1.10;1.10;;;;;;;14.63;100.00;97124.34;5103956;28;20142;-63
2023/06/01 03:37:35;;;;;;;1.23;1.23;;;;;;;14.35;100.00;97057.38;5103846;28;20127;-63
2023/06/01 03:40:10;;;;;;;1.20;1.20;;;;;;;14.83;100.00;97117.19;5088699;28;20056;-63
2023/06/01 03:42:47;;;;;;;1.25;1.25;;;;;;;14.86;100.00;97122.78;5082571;28;20044;-62
2023/06/01 03:45:16;;;;;;;1.10;1.10;;;;;;;14.95;100.00;97119.63;5082224;28;20661;-63
2023/06/01 03:47:43;;;;;;;1.27;1.27;;;;;;;13.15;100.00;96834.25;5082157;28;20055;-62
2023/06/01 03:50:10;;;;;;;1.35;1.35;;;;;;;14.96;100.00;97130.38;5071890;28;20053;-63
2023/06/01 03:52:37;;;;;;;1.15;1.15;;;;;;;15.11;100.00;97134.00;5062980;28;20392;-63
2023/06/01 03:55:08;;;;;;;1.20;1.20;;;;;;;15.15;100.00;97118.84;5063336;28;20063;-61
2023/06/01 03:57:35;;;;;;;1.20;1.20;;;;;;;15.15;100.00;97129.19;5062969;28;20070;-63
2023/06/01 04:00:19;;;;;;;1.20;1.20;;;;;;;15.22;100.00;97123.63;5061646;28;20048;-61
2023/06/01 04:02:49;;;;;;;;;;;;;;;15.28;100.00;97127.63;5063707;28;20060;-63
2023/06/01 04:05:17;;;;;;;1.45;1.45;;;;;;;15.07;100.00;97127.59;5063217;28;19950;-61
2023/06/01 04:07:45;;;;;;;1.20;1.20;;;;;;;15.04;100.00;97097.69;5078297;28;20152;-63
2023/06/01 04:10:13;;;;;;;1.35;1.35;;;;;;;15.46;100.00;97133.22;5062951;28;20052;-63
2023/06/01 04:12:44;;;;;;;1.20;1.20;;;;;;;14.60;99.47;96963.44;5078458;28;20427;-61
2023/06/01 04:15:12;;;;;;;1.40;1.40;;;;;;;15.75;99.53;97130.00;5066706;28;20045;-63
2023/06/01 04:17:40;;;;;;;1.23;1.23;;;;;;;15.76;99.32;97117.59;5066906;28;20055;-63
2023/06/01 04:20:10;;;;;;;1.40;1.40;;;;;;;15.12;97.22;96993.28;5067031;28;20408;-63
2023/06/01 04:22:37;;;;;;;1.30;1.30;;;;;;;16.09;98.75;97128.28;5082099;28;20131;-62
2023/06/01 04:25:09;;;;;;;1.30;1.30;;;;;;;16.09;98.07;97128.28;5066617;28;20487;-63
2023/06/01 04:27:39;;;;;;;1.33;1.33;;;;;;;16.39;98.06;97125.00;5082057;28;20052;-62
2023/06/01 04:30:09;;;;;;;1.50;1.50;;;;;;;16.67;93.85;97124.09;5066557;28;20067;-63
2023/06/01 04:32:37;;;;;;;1.40;1.40;;;;;;;16.81;92.46;97129.59;5066404;28;20055;-62
2023/06/01 04:35:05;;;;;;;1.70;1.70;;;;;;;16.88;90.91;97129.56;5066037;28;20121;-63
2023/06/01 04:37:40;;;;;;;1.50;1.50;;;;;;;16.82;91.46;97120.00;5065253;28;20048;-62
2023/06/01 04:40:09;;;;;;;1.60;1.60;;;;;;;16.93;91.48;97106.75;5092234;28;20137;-62
2023/06/01 04:42:40;;;;;;;1.50;1.50;;;;;;;17.06;90.45;97116.22;5106896;28;20063;-63
2023/06/01 04:45:10;;;;;;;1.40;1.40;;;;;;;16.85;94.26;97141.56;5105668;28;20055;-63
2023/06/01 04:47:39;;;;;;;1.50;1.50;;;;;;;17.00;93.98;97131.88;5106721;28;20120;-63
2023/06/01 04:50:11;;;;;;;1.42;1.42;;;;;;;17.00;93.43;97106.69;5106600;28;20488;-64
2023/06/01 04:52:39;;;;;;;1.38;1.38;;;;;;;14.93;92.90;96792.88;5092182;28;20431;-62
2023/06/01 04:55:07;;;;;;;1.50;1.50;;;;;;;16.63;92.17;97022.63;5084866;28;20055;-62
2023/06/01 04:57:35;;;;;;;1.60;1.60;;;;;;;17.19;91.45;97083.75;5084965;28;20051;-62
2023/06/01 05:00:08;;;;;;;1.85;1.85;;;;;;;17.55;90.80;97124.28;5083044;28;20048;-62
2023/06/01 05:02:35;;;;;;;1.87;1.87;;;;;;;17.58;90.27;97112.22;5084257;28;20055;-63
2023/06/01 05:05:02;;;;;;;1.50;1.50;;;;;;;17.43;91.36;97083.56;5084588;28;20058;-62
2023/06/01 05:07:29;;;;;;;1.77;1.77;;;;;;;17.57;91.02;97083.44;5084665;28;20052;-62
2023/06/01 05:09:56;;;;;;;1.73;1.73;;;;;;;18.05;91.53;97126.16;5085995;28;20054;-62
2023/06/01 05:12:22;;;;;;;1.67;1.67;;;;;;;18.01;89.64;97096.59;5084174;28;20057;-62
2023/06/01 05:14:49;;;;;;;1.67;1.67;;;;;;;18.41;88.81;97132.22;5085612;28;20048;-62
2023/06/01 05:17:16;;;;;;;1.52;1.52;;;;;;;18.40;88.89;97119.38;5085548;28;20400;-63
2023/06/01 05:19:42;;;;;;;1.60;1.60;;;;;;;18.38;86.60;97082.56;5085684;28;20052;-62
2023/06/01 05:22:10;;;;;;;1.45;1.45;;;;;;;18.26;87.71;97049.41;5085442;28;20346;-63
2023/06/01 05:24:37;;;;;;;1.77;1.77;;;;;;;18.64;88.65;97109.03;5084591;28;20059;-58
2023/06/01 05:27:05;;;;;;;1.80;1.80;;;;;;;18.28;88.17;97049.00;5083674;28;20058;-62
2023/06/01 05:29:32;;;;;;;1.83;1.83;;;;;;;18.52;87.40;97082.38;5084002;28;20051;-60
2023/06/01 05:31:58;;;;;;;1.80;1.80;;;;;;;18.75;88.57;97120.91;5085250;28;20044;-61
2023/06/01 05:34:25;;;;;;;1.67;1.67;;;;;;;18.23;87.64;97016.59;5053471;28;20049;-69
2023/06/01 05:36:52;;;;;;;1.60;1.60;;;;;;;19.14;85.72;97119.13;5054100;28;20314;-64
2023/06/01 05:39:19;;;;;;;1.58;1.58;;;;;;;19.31;86.14;97112.50;5053614;28;20062;-68
2023/06/01 05:41:46;;;;;;;1.63;1.63;;;;;;;19.35;86.27;97113.22;5076283;28;20548;-63
2023/06/01 05:44:12;;;;;;;1.98;1.98;;;;;;;18.88;86.91;97066.59;5063441;28;20418;-76
2023/06/01 05:46:39;;;;;;;1.80;1.80;;;;;;;19.30;86.05;97094.03;5071333;28;20252;-66
2023/06/01 05:49:06;;;;;;;1.80;1.80;;;;;;;19.77;84.88;97124.97;5075661;28;20048;-69
2023/06/01 05:51:36;;;;;;;1.90;1.90;;;;;;;20.00;85.29;97124.94;5068342;28;20165;-62
2023/06/01 05:54:04;;;;;;;1.98;1.98;;;;;;;19.46;88.86;97097.00;5080127;28;20055;-65
2023/06/01 05:56:30;;;;;;;1.75;1.75;;;;;;;19.94;87.28;97127.47;5080133;28;20054;-63
2023/06/01 05:58:58;;;;;;;1.75;1.75;;;;;;;20.20;85.24;97118.13;5075191;28;20560;-64
2023/06/01 06:01:27;;;;;;;2.00;2.00;;;;;;;20.11;83.96;97125.53;5059810;28;20105;-65
2023/06/01 06:03:53;;;;;;;2.00;2.00;;;;;;;20.22;83.54;97126.16;5078128;28;20044;-68
2023/06/01 06:06:21;;;;;;;1.80;1.80;;;;;;;18.26;82.15;96777.41;5079324;28;20054;-61
2023/06/01 06:08:51;;;;;;;1.80;1.80;;;;;;;20.14;81.67;97051.59;5063731;28;20053;-66
2023/06/01 06:11:17;;;;;;;1.85;1.85;;;;;;;19.86;80.51;97029.59;5066073;28;20095;-61
2023/06/01 06:13:44;;;;;;;2.03;2.03;;;;;;;20.89;78.83;97117.91;5077892;28;20055;-61
2023/06/01 06:16:11;;;;;;;2.05;2.05;;;;;;;20.90;77.21;97101.78;5074762;28;20055;-65
2023/06/01 06:18:38;;;;;;;2.17;2.17;;;;;;;20.22;79.63;97048.19;5065138;28;20487;-70
2023/06/01 06:21:05;;;;;;;2.10;2.10;;;;;;;21.19;78.77;97116.84;5067763;28;20495;-65
2023/06/01 06:23:32;;;;;;;2.15;2.15;;;;;;;21.12;76.81;97094.47;5104571;28;20051;-65
2023/06/01 06:25:59;;;;;;;1.92;1.92;;;;;;;20.59;77.97;96971.00;5104554;28;20047;-65
2023/06/01 06:28:26;;;;;;;2.10;2.10;;;;;;;21.37;76.66;97111.56;5087371;28;20066;-65
2023/06/01 06:30:53;;;;;;;2.20;2.20;;;;;;;21.42;74.72;97084.91;5069634;28;20048;-63
2023/06/01 06:33:20;;;;;;;2.13;2.13;;;;;;;21.13;73.07;97000.28;5077103;28;20056;-63
2023/06/01 06:35:46;;;;;;;2.60;2.50;;;;;;;21.73;72.77;97074.81;5064853;28;20052;-74
2023/06/01 06:38:13;;;;;;;2.50;2.40;;;;;;;21.54;73.26;96991.16;5073327;28;20045;-62
2023/06/01 06:40:40;;;;;;;2.20;2.20;;;;;;;21.83;71.69;97008.94;5074013;28;20079;-60
2023/06/01 06:43:06;;;;;;;2.25;2.25;;;;;;;22.19;72.62;97049.78;5076037;28;20077;-68
2023/06/01 06:45:33;;;;;;;2.65;2.55;;;;;;;22.35;69.61;97120.28;5070943;28;20044;-64
2023/06/01 06:48:00;;;;;;;2.50;2.40;;;;;;;22.35;67.33;97142.09;5078823;28;20071;-62
2023/06/01 06:50:27;;;;;;;2.58;2.47;;;;;;;22.76;68.38;97118.75;5064941;28;20044;-63
2023/06/01 06:52:54;;;;;;;2.25;2.25;;;;;;;22.56;64.97;97050.38;5066047;28;20044;-66
2023/06/01 06:55:22;;;;;;;2.83;2.72;;;;;;;22.72;65.40;97058.75;5080247;28;20117;-66
2023/06/01 06:57:48;;;;;;;2.80;2.70;;;;;;;23.42;64.07;97118.72;5070090;28;20049;-68
2023/06/01 07:00:15;;;;;;;2.83;2.72;;;;;;;23.63;62.26;97118.03;5079237;28;20047;-61
2023/06/01 07:02:44;;;;;;;2.70;2.60;;;;;;;23.68;61.31;97100.47;5067792;28;20089;-62
2023/06/01 07:05:11;;;;;;;3.30;3.20;;;;;;;23.48;62.15;97047.00;5066452;28;20045;-68
2023/06/01 07:07:40;;;;;;;2.75;2.65;;;;;;;24.24;59.90;97117.56;5063613;28;20318;-63
2023/06/01 07:10:07;;;;;;;3.33;3.22;;;;;;;22.45;59.22;96853.81;5063585;28;20052;-69
2023/06/01 07:12:35;;;;;;;2.92;2.83;;;;;;;24.42;58.32;97121.34;5063088;28;20076;-63
2023/06/01 07:15:02;;;;;;;2.90;2.80;;;;;;;24.13;53.16;97058.50;5075317;28;20048;-64
2023/06/01 07:17:29;;;;;;;2.85;2.75;;;;;;;24.76;50.23;97118.50;5063706;28;20051;-64
2023/06/01 07:19:56;;;;;;;3.20;3.10;;;;;;;24.34;50.26;97049.25;5074834;28;20086;-63
2023/06/01 07:22:22;;;;;;;3.22;3.13;;;;;;;22.53;52.02;96786.63;5075398;28;20429;-66
2023/06/01 07:24:49;;;;;;;3.38;3.28;;;;;;;24.67;51.97;97073.09;5061885;28;20243;-65
2023/06/01 07:27:17;;;;;;;3.15;3.05;;;;;;;25.10;47.45;97107.03;5062709;28;20051;-61
2023/06/01 07:29:44;;;;;;;3.50;3.40;;;;;;;25.26;49.15;97098.28;5073291;28;20076;-61
2023/06/01 07:32:11;;;;;;;3.90;3.80;;;;;;;24.34;46.09;97054.09;5066414;28;20083;-63
2023/06/01 07:34:38;;;;;;;3.00;2.90;;;;;;;24.51;48.45;97110.09;5065662;28;20083;-62
2023/06/01 07:37:05;;;;;;;2.85;2.75;;;;;;;24.16;47.85;97111.38;5072887;28;20044;-65
2023/06/01 07:39:43;;;;;;;3.40;3.30;;;;;;;24.66;50.00;97105.50;5074570;28;20059;-65
2023/06/01 07:42:10;;;;;;;3.53;3.42;;;;;;;24.61;47.46;97108.91;5074065;28;20052;-62
2023/06/01 07:44:36;;;;;;;3.05;2.95;;;;;;;24.69;46.21;97090.41;5077444;28;20044;-66
2023/06/01 07:47:04;;;;;;;3.10;3.00;;;;;;;22.82;47.57;96854.25;5078466;28;20228;-67
2023/06/01 07:49:31;;;;;;;2.97;2.88;;;;;;;24.30;48.75;97036.44;5073470;28;20048;-66
2023/06/01 07:51:58;;;;;;;3.03;2.92;;;;;;;24.72;47.38;97103.66;5084370;28;20052;-68
2023/06/01 07:54:25;;;;;;;3.03;2.92;;;;;;;24.31;47.87;97004.84;5072611;28;20045;-71
2023/06/01 07:56:53;;;;;;;3.40;3.30;;;;;;;24.97;45.16;97103.53;5066957;28;20092;-68
2023/06/01 07:59:27;;;;;;;3.13;3.03;;;;;;;25.10;45.14;97098.53;5067006;28;20137;-65
2023/06/01 08:01:55;;;;;;;3.40;3.30;;;;;;;25.22;45.82;97094.03;5072485;28;20040;-62
2023/06/01 08:04:24;;;;;;;3.60;3.50;;;;;;;25.45;46.47;97104.84;5077465;28;20048;-70
2023/06/01 08:06:52;;;;;;;3.72;3.63;;;;;;;25.12;45.48;96988.28;5080409;28;20287;-66
2023/06/01 08:09:21;;;;;;;3.65;3.55;;;;;;;25.90;45.10;97079.44;5075900;28;20084;-64
2023/06/01 08:11:48;;;;;;;3.33;3.22;;;;;;;24.90;44.46;97026.44;5066290;28;20044;-70
2023/06/01 08:14:15;;;;;;;3.55;3.45;;;;;;;24.86;43.92;96989.78;5056001;28;20059;-65
2023/06/01 08:16:43;;;;;;;3.70;3.60;;;;;;;24.74;44.51;97049.34;5060305;28;20056;-61
2023/06/01 08:19:09;;;;;;;3.40;3.30;;;;;;;25.04;44.38;97085.41;5065234;28;20617;-63
2023/06/01 08:21:36;;;;;;;3.42;3.33;;;;;;;25.46;43.72;97082.97;5056883;28;20194;-65
2023/06/01 08:24:03;;;;;;;3.75;3.65;;;;;;;25.44;44.47;97000.38;5046446;28;20056;-61
2023/06/01 08:26:30;;;;;;;3.42;3.33;;;;;;;24.97;44.24;96970.28;5065429;28;20066;-66
2023/06/01 08:28:57;;;;;;;3.85;3.75;;;;;;;25.24;44.34;96924.97;5061025;28;20586;-74
2023/06/01 08:31:25;;;;;;;3.97;3.88;;;;;;;26.34;42.14;97057.25;5063931;28;20049;-69
2023/06/01 08:33:53;;;;;;;3.90;3.80;;;;;;;26.61;40.82;97065.75;5063602;28;20190;-69
2023/06/01 08:36:20;;;;;;;3.80;3.70;;;;;;;26.80;40.92;97073.00;5059688;28;20052;-68
2023/06/01 08:38:49;;;;;;;3.50;3.40;;;;;;;26.70;39.86;97046.66;5056948;28;20056;-64
2023/06/01 08:41:37;;;;;;;3.88;3.78;;;;;;;26.87;40.01;97072.69;5052494;28;20040;-62
2023/06/01 08:44:05;;;;;;;3.70;3.60;;;;;;;26.37;40.46;97000.28;5052543;28;20048;-62
2023/06/01 08:46:32;;;;;;;3.95;3.85;;;;;;;26.10;39.81;96951.22;5060814;28;20057;-67
2023/06/01 08:49:01;;;;;;;3.40;3.30;;;;;;;24.78;41.08;96846.00;5056486;28;20048;-62
2023/06/01 08:51:29;;;;;;;3.80;3.70;;;;;;;25.82;42.80;97049.00;5079936;28;20483;-65
2023/06/01 08:53:57;;;;;;;3.85;3.75;;;;;;;26.29;44.54;97032.31;5077420;28;20048;-62
2023/06/01 08:56:23;;;;;;;3.53;3.42;;;;;;;26.26;41.61;96974.41;5045315;28;20477;-60
2023/06/01 08:58:51;;;;;;;3.75;3.65;;;;;;;26.94;41.41;97041.06;5045391;28;20056;-69
2023/06/01 09:01:21;;;;;;;3.67;3.58;;;;;;;26.81;40.41;97017.72;5045586;28;20048;-76
2023/06/01 09:03:49;;;;;;;3.55;3.45;;;;;;;27.00;40.34;97047.66;5061302;28;20501;-75
2023/06/01 09:06:16;;;;;;;4.03;3.92;;;;;;;26.43;41.40;96986.22;5056675;28;20050;-63
2023/06/01 09:08:44;;;;;;;3.17;3.08;;;;;;;25.77;41.78;96990.00;5068172;28;20083;-70
2023/06/01 09:11:11;;;;;;;3.65;3.55;;;;;;;25.49;44.68;97036.63;5057467;28;20049;-61
2023/06/01 09:13:40;;;;;;;3.58;3.47;;;;;;;25.88;44.80;97008.16;5049908;28;20040;-62
2023/06/01 09:16:07;;;;;;;3.60;3.50;;;;;;;25.99;43.01;96997.13;5052841;28;20056;-70
2023/06/01 09:18:34;;;;;;;3.72;3.63;;;;;;;26.91;41.13;97039.19;5050657;28;20055;-71
2023/06/01 09:21:12;;;;;;;3.90;3.80;;;;;;;27.28;39.61;97043.50;5045958;28;20566;-69
2023/06/01 09:23:38;;;;;;;3.70;3.60;;;;;;;27.07;39.61;96978.28;5046247;28;20052;-66
2023/06/01 09:26:08;;;;;;;4.20;4.10;;;;;;;27.09;40.75;96970.06;5046728;28;20495;-68
2023/06/01 09:29:03;;;;;;;4.10;4.00;;;;;;;27.50;40.25;97043.22;5048340;28;20087;-66
2023/06/01 09:31:48;;;;;;;3.58;3.47;;;;;;;27.45;41.02;97030.47;5050668;28;20087;-61
2023/06/01 09:34:20;;;;;;;4.30;4.20;;;;;;;27.51;40.14;97024.88;5057256;28;20138;-61
2023/06/01 09:36:52;;;;;;;3.95;3.85;;;;;;;27.37;40.90;97032.06;5066164;28;20044;-61
2023/06/01 09:39:21;;;;;;;3.83;3.72;;;;;;;27.29;40.93;96979.63;5053832;28;20052;-74
2023/06/01 09:41:47;;;;;;;4.03;3.92;;;;;;;27.16;38.69;97038.00;5063939;28;20439;-64
2023/06/01 09:44:22;;;;;;;3.97;3.88;;;;;;;27.09;40.45;96993.63;5064146;28;20036;-58
2023/06/01 09:46:51;;;;;;;3.92;3.83;;;;;;;26.49;39.58;96975.78;5065669;28;20589;-71
2023/06/01 09:49:22;;;;;;;3.83;3.72;;;;;;;26.71;39.15;96990.59;5066860;28;20136;-64
2023/06/01 09:51:49;;;;;;;4.00;3.90;;;;;;;26.32;39.90;96957.53;5067705;28;20048;-67
2023/06/01 09:54:28;;;;;;;3.67;3.58;;;;;;;25.88;40.24;97024.38;5076579;28;20048;-62
2023/06/01 09:56:55;;;;;;;3.63;3.53;;;;;;;25.56;41.39;97025.00;5077915;28;20425;-61
2023/06/01 09:59:44;;;;;;;3.72;3.63;;;;;;;25.13;42.06;96921.03;5084945;28;20079;-60
2023/06/01 10:02:19;;;;;;;3.40;3.30;;;;;;;25.63;41.30;96974.41;5067482;28;20057;-66
2023/06/01 10:04:53;;;;;;;3.45;3.35;;;;;;;25.34;40.90;97001.63;5064848;28;20048;-67
2023/06/01 10:07:21;;;;;;;3.60;3.50;;;;;;;25.04;41.95;96966.34;5063817;28;20640;-71
2023/06/01 10:09:51;;;;;;;3.15;3.05;;;;;;;25.56;43.45;96999.47;5068273;28;20173;-71
2023/06/01 10:12:18;;;;;;;3.50;3.40;;;;;;;25.83;42.61;96971.88;5069738;28;20815;-63
2023/06/01 10:14:45;;;;;;;3.60;3.50;;;;;;;26.13;42.60;96934.03;5081525;28;20078;-67
2023/06/01 10:17:14;;;;;;;3.75;3.65;;;;;;;26.67;41.53;97024.06;5079569;28;20044;-64
2023/06/01 10:19:41;;;;;;;3.60;3.50;;;;;;;26.48;43.49;97016.81;5065681;28;20047;-74
2023/06/01 10:22:10;;;;;;;3.80;3.70;;;;;;;26.12;43.21;96960.06;5065874;28;20067;-64
2023/06/01 10:24:41;;;;;;;3.58;3.47;;;;;;;26.31;43.40;97007.88;5062718;28;20377;-69
2023/06/01 10:27:20;;;;;;;3.53;3.42;;;;;;;25.80;44.83;96921.72;5061204;28;20068;-65
2023/06/01 10:29:47;;;;;;;3.60;3.50;;;;;;;26.32;44.60;96971.72;5060958;28;20056;-64
2023/06/01 10:32:47;;;;;;;3.50;3.40;;;;;;;26.99;42.81;96999.81;5068960;28;20575;-62
2023/06/01 10:35:25;;;;;;;3.80;3.70;;;;;;;27.57;40.63;96988.78;5076740;28;20056;-61
2023/06/01 10:38:12;;;;;;;3.60;3.50;;;;;;;28.15;39.59;96994.72;5078541;28;20613;-64
2023/06/01 10:40:41;;;;;;;4.22;4.13;;;;;;;28.55;38.73;96960.00;5078492;28;20059;-70
2023/06/01 10:43:36;;;;;;;4.20;4.10;;;;;;;28.31;37.37;96888.03;5064463;28;20473;-58
2023/06/01 10:46:03;;;;;;;4.45;4.35;;;;;;;29.05;36.65;96993.00;5073239;28;20049;-63
2023/06/01 10:48:51;;;;;;;4.43;4.32;;;;;;;29.11;37.60;96973.94;5074788;28;20660;-68
2023/06/01 10:51:20;;;;;;;4.10;4.00;;;;;;;28.91;37.70;96919.66;5074282;28;20044;-70
2023/06/01 10:53:46;;;;;;;4.20;4.10;;;;;;;29.34;36.60;96936.66;5071445;28;20052;-66
2023/06/01 10:56:40;;;;;;;4.30;4.20;;;;;;;29.66;36.65;96957.63;5076594;28;20048;-65
2023/06/01 10:59:07;;;;;;;4.13;4.03;;;;;;;29.81;36.42;96952.66;5068663;28;20143;-67
2023/06/01 11:01:45;;;;;;;4.35;4.25;;;;;;;29.77;35.62;96957.78;5091733;28;20040;-63
2023/06/01 11:04:13;;;;;;;4.15;4.05;;;;;;;28.66;37.27;96797.69;5082349;28;20133;-65
2023/06/01 11:06:42;;;;;;;4.55;4.45;;;;;;;28.70;37.13;96838.97;5067191;28;20060;-64
2023/06/01 11:09:11;;;;;;;4.43;4.32;;;;;;;29.05;36.47;96913.13;5075247;28;20113;-65
2023/06/01 11:11:55;;;;;;;4.07;3.97;;;;;;;29.00;38.17;96939.50;5080530;28;20044;-60
2023/06/01 11:14:24;;;;;;;4.38;4.28;;;;;;;28.96;37.48;96950.34;5063555;28;20147;-65
2023/06/01 11:16:55;;;;;;;4.28;4.18;;;;;;;28.44;38.21;96914.16;5063152;28;20061;-64
2023/06/01 11:19:27;;;;;;;4.00;3.90;;;;;;;27.97;38.16;96947.25;5064369;28;20078;-60
2023/06/01 11:22:04;;;;;;;3.70;3.60;;;;;;;27.77;38.64;96944.19;5063128;28;20044;-73
2023/06/01 11:24:34;;;;;;;3.95;3.85;;;;;;;27.55;38.82;96892.50;5066721;28;20052;-61
2023/06/01 11:27:06;;;;;;;3.97;3.88;;;;;;;27.70;38.99;96899.03;5075473;28;20041;-62
2023/06/01 11:29:34;;;;;;;4.25;4.15;;;;;;;27.65;38.96;96868.38;5069044;28;20055;-62
2023/06/01 11:32:03;;;;;;;4.05;3.95;;;;;;;27.76;38.31;96859.25;5083726;28;20096;-60
2023/06/01 11:34:38;;;;;;;4.28;4.18;;;;;;;27.11;37.59;96746.47;5079593;28;20078;-61
2023/06/01 11:37:06;;;;;;;3.90;3.80;;;;;;;28.33;38.80;96911.13;5073521;28;20052;-61
2023/06/01 11:39:33;;;;;;;4.25;4.15;;;;;;;28.04;38.82;96886.25;5063528;28;20055;-61
2023/06/01 11:42:12;;;;;;;3.78;3.67;;;;;;;28.42;38.27;96911.03;5063200;28;20091;-61
2023/06/01 11:44:44;;;;;;;4.38;4.28;;;;;;;28.28;37.77;96871.91;5064969;28;20080;-63